Time;durP1;ratioP1;P1;durP2;ratioP2;P2;SDS_P1;SDS_P2;PMS_P1;PMS_P2;Temp;Humidity;BMP_temperature;BMP_pressure;BME280_temperature;BME280_humidity;BME280_pressure;Samples;Min_cycle;Max_cycle;Signal;HPM_P1;HPM_P2
2021/08/21 00:00:12;;;;;;;3.03;1.90;;;16.20;99.90;;;15.93;100.00;101148.19;4201666;28;20032;-75
2021/08/21 00:02:13;;;;;;;4.57;2.13;;;16.20;99.90;;;15.99;100.00;101150.13;4185059;28;20029;-76
2021/08/21 00:04:15;;;;;;;1.77;1.67;;;16.20;99.90;;;16.08;100.00;101153.53;4201566;28;20102;-76
2021/08/21 00:06:16;;;;;;;2.35;1.75;;;16.20;99.90;;;16.11;100.00;101149.69;4185220;28;20025;-76
2021/08/21 00:08:17;;;;;;;2.50;1.60;;;16.30;99.90;;;16.11;100.00;101153.19;4176981;28;20424;-76
2021/08/21 00:10:18;;;;;;;2.92;2.55;;;16.30;99.90;;;16.10;100.00;101154.16;4201456;28;20066;-75
2021/08/21 00:12:19;;;;;;;2.53;2.22;;;16.30;99.90;;;16.09;100.00;101131.25;4201497;28;20020;-76
2021/08/21 00:14:20;;;;;;;4.45;2.53;;;16.30;99.90;;;16.10;100.00;101137.41;4202780;28;20031;-76
2021/08/21 00:16:21;;;;;;;3.80;2.70;;;16.30;99.90;;;16.17;100.00;101148.94;4201371;28;20024;-76
2021/08/21 00:18:22;;;;;;;3.75;2.42;;;16.30;99.90;;;16.12;100.00;101136.22;4201369;28;20017;-76
2021/08/21 00:20:23;;;;;;;4.47;2.20;;;16.30;99.90;;;16.13;100.00;101140.50;4201334;28;20035;-76
2021/08/21 00:22:24;;;;;;;3.53;2.03;;;16.30;99.90;;;16.18;100.00;101147.94;4202443;28;20103;-76
2021/08/21 00:24:25;;;;;;;3.75;2.17;;;16.30;99.90;;;16.18;100.00;101143.47;4202588;28;20035;-76
2021/08/21 00:26:26;;;;;;;3.03;2.28;;;16.40;99.90;;;16.18;100.00;101140.81;4202682;28;20025;-76
2021/08/21 00:28:27;;;;;;;3.22;2.30;;;16.40;99.90;;;16.19;100.00;101142.44;4202470;28;20077;-75
2021/08/21 00:30:28;;;;;;;3.03;2.03;;;16.30;99.90;;;16.07;100.00;101137.75;4202551;28;20044;-76
2021/08/21 00:32:29;;;;;;;3.58;1.92;;;16.30;99.90;;;16.05;100.00;101138.75;4202484;28;20048;-75
2021/08/21 00:34:29;;;;;;;2.70;2.15;;;16.30;99.90;;;16.08;100.00;101134.91;4201269;28;20029;-75
2021/08/21 00:36:30;;;;;;;3.25;2.28;;;16.30;99.90;;;16.05;100.00;101119.31;4201561;28;20131;-75
2021/08/21 00:38:31;;;;;;;2.40;1.98;;;16.20;99.90;;;16.07;100.00;101124.47;4202204;28;20024;-76
2021/08/21 00:40:32;;;;;;;3.88;2.50;;;16.30;99.90;;;16.00;100.00;101122.53;4202431;28;20028;-76
2021/08/21 00:42:35;;;;;;;4.63;2.42;;;16.30;99.90;;;15.95;100.00;101135.53;4201062;28;20151;-76
2021/08/21 00:44:38;;;;;;;3.50;2.55;;;16.20;99.90;;;15.85;100.00;101126.16;4184301;28;20024;-76
2021/08/21 00:47:17;;;;;;;2.72;2.33;;;16.20;99.90;;;15.83;100.00;101136.16;4188526;28;20041;-76
2021/08/21 00:49:18;;;;;;;5.28;2.55;;;16.10;99.90;;;15.78;100.00;101117.25;4197184;28;20032;-76
2021/08/21 00:51:19;;;;;;;2.58;2.13;;;16.10;99.90;;;15.79;100.00;101119.75;4200924;28;20174;-75
2021/08/21 00:53:22;;;;;;;3.97;2.13;;;16.10;99.90;;;15.86;100.00;101119.84;4200864;28;20060;-76
2021/08/21 00:55:23;;;;;;;2.70;2.50;;;16.10;99.90;;;15.84;100.00;101109.38;4200861;28;20064;-76
2021/08/21 00:57:31;;;;;;;2.70;2.38;;;16.10;99.90;;;15.87;100.00;101113.50;4200716;28;20067;-76
2021/08/21 00:59:37;;;;;;;3.00;2.70;;;16.10;99.90;;;15.87;100.00;101108.19;4200993;28;20020;-75
2021/08/21 01:01:38;;;;;;;3.95;2.63;;;16.10;99.90;;;15.81;100.00;101106.25;4200908;28;20025;-76
2021/08/21 01:03:39;;;;;;;2.97;2.35;;;16.00;99.90;;;15.84;100.00;101108.53;4202047;28;20033;-76
2021/08/21 01:05:41;;;;;;;4.07;2.60;;;16.00;99.90;;;15.80;100.00;101100.09;4200732;28;20028;-76
2021/08/21 01:07:45;;;;;;;3.00;2.40;;;16.10;99.90;;;15.90;100.00;101110.47;4200673;28;20507;-76
2021/08/21 01:09:47;;;;;;;3.97;2.80;;;16.10;99.90;;;15.83;100.00;101098.94;4202000;28;20509;-76
2021/08/21 01:11:48;;;;;;;3.47;2.58;;;16.00;99.90;;;15.87;100.00;101097.53;4201915;28;20040;-76
2021/08/21 01:13:50;;;;;;;3.33;2.22;;;16.00;99.90;;;15.93;100.00;101104.78;4200553;28;20027;-76
2021/08/21 01:15:52;;;;;;;2.15;1.95;;;16.10;99.90;;;15.95;100.00;101108.91;4184100;28;20124;-76
2021/08/21 01:17:53;;;;;;;3.03;1.98;;;16.00;99.90;;;15.89;100.00;101106.97;4183965;28;20574;-76
2021/08/21 01:19:54;;;;;;;3.03;2.28;;;16.10;99.90;;;15.84;100.00;101098.72;4195629;28;20071;-76
2021/08/21 01:21:55;;;;;;;5.40;2.55;;;16.00;99.90;;;15.85;100.00;101105.72;4201682;28;20020;-76
2021/08/21 01:23:56;;;;;;;4.70;2.92;;;16.00;99.90;;;15.99;100.00;101104.91;4201682;28;20082;-76
2021/08/21 01:25:57;;;;;;;5.38;3.22;;;16.10;99.90;;;15.95;100.00;101097.44;4200400;28;20021;-76
2021/08/21 01:27:59;;;;;;;3.78;3.25;;;16.10;99.90;;;15.97;100.00;101087.47;4200403;28;20036;-76
2021/08/21 01:30:00;;;;;;;4.30;3.70;;;16.10;99.90;;;16.06;100.00;101099.69;4200443;28;20088;-76
2021/08/21 01:32:01;;;;;;;5.82;3.60;;;16.10;99.90;;;15.98;100.00;101103.22;4200629;28;20044;-76
2021/08/21 01:34:02;;;;;;;6.05;4.00;;;16.10;99.90;;;16.03;100.00;101105.38;4201761;28;20074;-76
2021/08/21 01:36:04;;;;;;;7.15;3.90;;;16.20;99.90;;;15.94;100.00;101096.66;4183791;28;20551;-76
2021/08/21 01:38:05;;;;;;;6.82;4.35;;;16.20;99.90;;;16.04;100.00;101101.66;4201286;28;20029;-75
2021/08/21 01:40:07;;;;;;;4.38;3.97;;;16.10;99.90;;;16.01;100.00;101086.91;4201777;28;20020;-76
2021/08/21 01:42:08;;;;;;;4.68;4.00;;;16.20;99.90;;;16.06;100.00;101094.34;4201709;28;20021;-75
2021/08/21 01:44:12;;;;;;;6.53;4.00;;;16.20;99.90;;;15.96;100.00;101091.13;4200530;28;20116;-76
2021/08/21 01:46:13;;;;;;;;;;;16.20;99.90;;;15.95;100.00;101103.59;4183948;28;20069;-76
2021/08/21 01:48:15;;;;;;;5.20;3.70;;;16.20;99.90;;;15.94;100.00;101088.66;4188055;28;20410;-76
2021/08/21 01:50:19;;;;;;;5.68;3.83;;;16.20;99.90;;;15.98;100.00;101099.75;4190846;28;20510;-75
2021/08/21 01:52:20;;;;;;;4.95;4.00;;;16.20;99.90;;;15.97;100.00;101087.47;4201375;28;20103;-76
2021/08/21 01:54:21;;;;;;;4.65;4.20;;;16.10;99.90;;;15.93;99.99;101094.16;4200228;28;20059;-76
2021/08/21 01:56:23;;;;;;;6.70;3.85;;;16.10;99.90;;;15.94;99.72;101090.50;4200257;28;20056;-76
2021/08/21 01:58:24;;;;;;;5.13;3.75;;;16.10;99.90;;;15.92;99.41;101081.84;4201785;28;20021;-76
2021/08/21 02:00:28;;;;;;;7.20;4.10;;;16.10;99.90;;;15.86;99.76;101093.25;4200293;28;20031;-76
2021/08/21 02:02:28;;;;;;;;;;;16.10;99.90;;;15.85;99.41;101086.25;4201728;28;20107;-76
2021/08/21 02:04:29;;;;;;;7.43;3.88;;;16.10;99.90;;;15.88;98.83;101076.09;4200533;28;19930;-76
2021/08/21 02:06:30;;;;;;;5.05;4.35;;;16.10;99.90;;;15.85;98.55;101071.13;4200329;28;20029;-75
2021/08/21 02:08:31;;;;;;;5.30;4.03;;;16.10;99.90;;;15.84;98.85;101079.28;4200060;28;20033;-76
2021/08/21 02:10:32;;;;;;;4.45;3.78;;;16.00;99.90;;;15.77;99.10;101073.06;4201278;28;20480;-76
2021/08/21 02:12:34;;;;;;;4.75;3.92;;;16.00;99.90;;;15.78;99.30;101077.34;4200265;28;20048;-76
2021/08/21 02:14:35;;;;;;;6.43;4.15;;;16.00;99.90;;;15.78;98.70;101080.84;4183767;28;20029;-76
2021/08/21 02:16:36;;;;;;;4.50;3.45;;;16.00;99.90;;;15.76;98.89;101076.72;4200122;28;20033;-76
2021/08/21 02:18:37;;;;;;;5.03;3.85;;;16.00;99.90;;;15.77;98.49;101073.06;4183423;28;20017;-76
2021/08/21 02:20:39;;;;;;;6.95;4.32;;;16.00;99.90;;;15.79;97.89;101076.34;4201227;28;20554;-76
2021/08/21 02:22:44;;;;;;;4.30;3.65;;;16.00;99.90;;;15.71;98.30;101066.59;4183305;28;20024;-76
2021/08/21 02:24:51;;;;;;;4.18;3.47;;;15.90;99.90;;;15.65;98.66;101064.66;4199985;28;20029;-76
2021/08/21 02:26:59;;;;;;;4.18;3.42;;;15.90;99.90;;;15.66;98.12;101062.81;4199847;28;20582;-76
2021/08/21 02:28:59;;;;;;;6.97;4.38;;;15.90;99.90;;;15.64;98.44;101062.19;4200170;28;20036;-76
2021/08/21 02:31:00;;;;;;;4.05;3.63;;;15.90;99.90;;;15.52;98.62;101063.63;4200055;28;20403;-76
2021/08/21 02:33:01;;;;;;;5.22;3.80;;;15.80;99.90;;;15.39;99.33;101059.72;4199852;28;20091;-76
2021/08/21 02:35:04;;;;;;;5.63;4.00;;;15.70;99.90;;;15.31;99.71;101051.81;4200996;28;20029;-76
2021/08/21 02:37:06;;;;;;;4.60;3.47;;;15.70;99.90;;;15.34;99.59;101062.09;4201140;28;20043;-75
2021/08/21 02:39:09;;;;;;;5.90;3.90;;;15.60;99.90;;;15.26;99.96;101058.69;4200992;28;20063;-76
2021/08/21 02:41:10;;;;;;;6.53;3.97;;;15.60;99.90;;;15.30;100.00;101063.44;4183345;28;20116;-75
2021/08/21 02:43:12;;;;;;;5.55;4.15;;;15.60;99.90;;;15.25;100.00;101055.19;4199807;28;20025;-76
2021/08/21 02:45:14;;;;;;;5.43;3.90;;;15.60;99.90;;;15.34;100.00;101054.13;4199827;28;20029;-75
2021/08/21 02:47:15;;;;;;;5.70;4.53;;;15.60;99.90;;;15.34;99.68;101055.97;4199746;28;20040;-76
2021/08/21 02:49:17;;;;;;;5.25;4.07;;;15.60;99.90;;;15.34;99.96;101055.97;4179066;28;20098;-75
2021/08/21 02:51:18;;;;;;;6.05;4.18;;;15.60;99.90;;;15.35;100.00;101054.97;4200217;28;20488;-74
2021/08/21 02:53:19;;;;;;;5.38;4.15;;;15.60;99.90;;;15.24;100.00;101045.56;4200973;28;20032;-75
2021/08/21 02:55:20;;;;;;;4.95;3.80;;;15.60;99.90;;;15.30;100.00;101054.66;4201034;28;20028;-75
2021/08/21 02:57:21;;;;;;;5.85;4.50;;;15.60;99.90;;;15.29;100.00;101051.16;4201009;28;20419;-75
2021/08/21 02:59:21;;;;;;;4.43;4.00;;;15.60;99.90;;;15.34;100.00;101050.63;4183300;28;20044;-75
2021/08/21 03:01:23;;;;;;;4.75;4.20;;;15.60;99.90;;;15.38;99.91;101063.38;4203563;28;20025;-75
2021/08/21 03:03:23;;;;;;;5.50;4.00;;;15.60;99.90;;;15.39;100.00;101065.03;4202809;28;20028;-75
2021/08/21 03:05:24;;;;;;;5.88;4.20;;;15.60;99.90;;;15.41;99.61;101055.03;4203367;28;20020;-75
2021/08/21 03:07:25;;;;;;;8.18;4.75;;;15.60;99.90;;;15.40;99.36;101058.72;4203551;28;20037;-75
2021/08/21 03:09:26;;;;;;;5.30;4.40;;;15.60;99.90;;;15.40;99.48;101064.03;4202765;28;20040;-75
2021/08/21 03:11:27;;;;;;;5.32;4.05;;;15.70;99.90;;;15.42;99.50;101055.88;4202728;28;20090;-75
2021/08/21 03:13:28;;;;;;;5.70;4.38;;;15.70;99.90;;;15.54;98.57;101059.78;4202922;28;20024;-75
2021/08/21 03:15:29;;;;;;;5.30;4.07;;;15.70;99.90;;;15.40;98.51;101048.09;4202497;28;20104;-75
2021/08/21 03:17:31;;;;;;;8.10;5.15;;;15.70;99.90;;;15.43;99.11;101065.50;4202609;28;20119;-75
2021/08/21 03:19:32;;;;;;;5.68;4.18;;;15.70;99.90;;;15.53;98.74;101058.13;4185901;28;20031;-75
2021/08/21 03:21:32;;;;;;;5.03;4.53;;;15.70;99.90;;;15.65;97.80;101053.22;4180058;28;20508;-75
2021/08/21 03:23:33;;;;;;;5.72;4.70;;;15.80;99.90;;;15.66;97.81;101060.16;4200622;28;20029;-75
2021/08/21 03:25:34;;;;;;;6.65;4.40;;;15.80;99.90;;;15.65;97.84;101054.03;4202556;28;20030;-76
2021/08/21 03:27:35;;;;;;;6.10;4.45;;;15.80;99.90;;;15.62;98.11;101053.59;4202527;28;20043;-77
2021/08/21 03:29:37;;;;;;;5.82;4.28;;;15.80;99.90;;;15.65;97.82;101053.22;4185744;28;20029;-76
2021/08/21 03:31:37;;;;;;;5.45;3.65;;;15.80;99.90;;;15.59;98.11;101048.63;4202356;28;20059;-76
2021/08/21 03:33:38;;;;;;;4.78;3.72;;;15.80;99.90;;;15.57;98.48;101042.63;4202330;28;20028;-76
2021/08/21 03:35:39;;;;;;;5.00;4.50;;;15.80;99.90;;;15.62;98.21;101045.59;4203775;28;20112;-76
2021/08/21 03:37:40;;;;;;;4.88;4.07;;;15.80;99.90;;;15.57;98.05;101046.13;4202051;28;20519;-76
2021/08/21 03:39:41;;;;;;;6.18;3.70;;;15.80;99.90;;;15.59;98.15;101051.28;4202197;28;20032;-76
2021/08/21 03:41:42;;;;;;;5.43;4.40;;;15.80;99.90;;;15.60;97.93;101058.22;4201938;28;20106;-76
2021/08/21 03:43:43;;;;;;;4.93;3.97;;;15.80;99.90;;;15.60;97.90;101060.91;4203418;28;20036;-76
2021/08/21 03:45:44;;;;;;;6.03;3.90;;;15.80;99.90;;;15.61;98.37;101058.06;4201727;28;20405;-76
2021/08/21 03:47:47;;;;;;;4.32;3.83;;;15.80;99.90;;;15.54;98.60;101051.81;4201495;28;20048;-76
2021/08/21 03:49:48;;;;;;;5.00;4.50;;;15.80;99.90;;;15.64;98.09;101063.03;4198092;28;20025;-76
2021/08/21 03:51:49;;;;;;;7.55;4.75;;;15.80;99.90;;;15.56;98.46;101059.63;4168948;28;20029;-76
2021/08/21 03:53:49;;;;;;;5.10;4.57;;;15.80;99.90;;;15.60;98.51;101064.38;4185333;28;20623;-76
2021/08/21 03:55:50;;;;;;;6.75;4.80;;;15.80;99.90;;;15.64;97.92;101057.72;4168772;28;20041;-76
2021/08/21 03:57:51;;;;;;;5.50;4.55;;;15.80;99.90;;;15.58;98.12;101066.41;4186531;28;20044;-76
2021/08/21 03:59:52;;;;;;;5.85;4.00;;;15.80;99.90;;;15.57;98.49;101071.88;4186583;28;20120;-76
2021/08/21 04:01:53;;;;;;;5.20;3.95;;;15.80;99.90;;;15.54;98.77;101069.59;4186261;28;20029;-76
2021/08/21 04:03:54;;;;;;;7.50;4.93;;;15.80;99.90;;;15.57;98.61;101080.69;4185256;28;20025;-76
2021/08/21 04:05:55;;;;;;;7.97;3.92;;;15.80;99.90;;;15.59;98.60;101080.53;4186259;28;20036;-76
2021/08/21 04:07:56;;;;;;;5.88;4.03;;;15.80;99.90;;;15.54;99.00;101074.91;4186226;28;20048;-75
2021/08/21 04:09:57;;;;;;;7.65;4.82;;;15.80;99.90;;;15.49;99.13;101076.28;4185274;28;20108;-76
2021/08/21 04:11:58;;;;;;;5.68;4.95;;;15.80;99.90;;;15.54;98.90;101066.94;4186207;28;20369;-76
2021/08/21 04:13:59;;;;;;;4.60;3.92;;;15.80;99.90;;;15.59;98.68;101080.53;4186295;28;20104;-76
2021/08/21 04:16:00;;;;;;;4.85;4.10;;;15.80;99.90;;;15.61;98.70;101089.16;4186392;28;20047;-76
2021/08/21 04:18:01;;;;;;;6.00;5.25;;;15.80;99.90;;;15.56;99.07;101081.69;4186387;28;20123;-76
2021/08/21 04:20:04;;;;;;;5.78;4.60;;;15.80;99.90;;;15.58;98.83;101079.72;4184924;28;20029;-76
2021/08/21 04:22:05;;;;;;;5.38;4.85;;;15.80;99.90;;;15.66;98.96;101084.94;4186100;28;20056;-76
2021/08/21 04:24:06;;;;;;;4.95;3.80;;;15.90;99.90;;;15.68;98.61;101074.94;4184864;28;20029;-76
2021/08/21 04:26:07;;;;;;;6.13;4.25;;;15.90;99.90;;;15.66;98.36;101074.31;4185063;28;20489;-76
2021/08/21 04:28:08;;;;;;;4.30;3.88;;;15.90;99.90;;;15.62;98.64;101075.66;4184893;28;20037;-76
2021/08/21 04:30:10;;;;;;;5.25;3.55;;;15.90;99.90;;;15.56;98.87;101076.38;4185962;28;20114;-76
2021/08/21 04:32:11;;;;;;;6.10;4.15;;;15.90;99.90;;;15.66;99.05;101089.44;4184877;28;20582;-76
2021/08/21 04:34:12;;;;;;;4.80;3.85;;;15.90;99.90;;;15.67;98.89;101089.25;4186007;28;20021;-76
2021/08/21 04:36:13;;;;;;;5.55;4.65;;;15.90;99.90;;;15.70;99.00;101090.72;4184895;28;20480;-76
2021/08/21 04:38:14;;;;;;;6.18;4.72;;;16.00;99.90;;;15.71;98.40;101097.72;4185516;28;20032;-76
2021/08/21 04:40:16;;;;;;;5.05;4.07;;;16.00;99.90;;;15.69;98.46;101089.06;4184800;28;20025;-76
2021/08/21 04:42:17;;;;;;;6.32;4.25;;;16.00;99.90;;;15.76;98.32;101096.16;4192884;28;20110;-76
2021/08/21 04:44:18;;;;;;;4.35;3.70;;;16.00;99.90;;;15.77;98.44;101104.97;4201168;28;20021;-76
2021/08/21 04:46:19;;;;;;;6.65;4.72;;;16.00;99.90;;;15.71;98.86;101095.06;4202014;28;20040;-76
2021/08/21 04:48:20;;;;;;;5.78;4.25;;;16.00;99.90;;;15.76;98.78;101112.13;4197526;28;20032;-76
2021/08/21 04:50:21;;;;;;;6.68;4.25;;;16.00;99.90;;;15.70;99.20;101114.66;4185799;28;20029;-76
2021/08/21 04:52:22;;;;;;;7.20;4.03;;;16.00;99.90;;;15.76;99.08;101113.94;4185465;28;20538;-76
2021/08/21 04:54:23;;;;;;;6.80;3.95;;;16.00;99.90;;;15.91;98.93;101117.47;4184346;28;20040;-76
2021/08/21 04:56:24;;;;;;;6.43;4.40;;;16.00;99.90;;;15.90;99.57;101113.97;4184450;28;20033;-76
2021/08/21 04:58:25;;;;;;;5.40;4.53;;;16.00;99.90;;;16.02;99.37;101125.00;4184255;28;20028;-76
2021/08/21 05:00:28;;;;;;;6.43;4.55;;;16.10;99.90;;;16.03;99.86;101126.66;4185298;28;20112;-76
2021/08/21 05:02:29;;;;;;;4.82;4.32;;;16.10;99.90;;;16.08;100.00;101128.75;4184198;28;20083;-76
2021/08/21 05:04:30;;;;;;;5.25;4.75;;;16.20;99.90;;;15.98;100.00;101123.69;4184289;28;20481;-76
2021/08/21 05:06:31;;;;;;;6.32;4.63;;;16.20;99.90;;;16.10;100.00;101129.41;4184274;28;20025;-76
2021/08/21 05:08:32;;;;;;;7.80;5.03;;;16.20;99.90;;;16.18;100.00;101124.00;4183962;28;20474;-76
2021/08/21 05:10:33;;;;;;;5.95;4.82;;;16.30;99.90;;;16.10;100.00;101132.88;4185373;28;20021;-76
2021/08/21 05:12:34;;;;;;;6.47;4.53;;;16.30;99.90;;;16.03;100.00;101129.31;4184323;28;20017;-76
2021/08/21 05:14:35;;;;;;;7.03;5.50;;;16.30;99.90;;;16.01;100.00;101139.28;4184203;28;20028;-76
2021/08/21 05:16:37;;;;;;;6.10;5.15;;;16.30;99.90;;;16.02;100.00;101133.81;4185316;28;20037;-76
2021/08/21 05:18:43;;;;;;;5.90;5.10;;;16.30;99.90;;;15.99;100.00;101126.19;4185180;28;20036;-76
2021/08/21 05:20:51;;;;;;;6.88;4.95;;;16.30;99.90;;;16.07;100.00;101140.44;4185255;28;20025;-76
2021/08/21 05:23:13;;;;;;;6.82;5.60;;;16.30;99.90;;;16.14;100.00;101131.53;4184483;28;20466;-76
2021/08/21 05:25:15;;;;;;;5.70;5.05;;;16.40;99.90;;;16.24;100.00;101124.09;4184189;28;20028;-76
2021/08/21 05:27:18;;;;;;;6.05;4.78;;;16.40;99.90;;;16.19;100.00;101136.31;4184252;28;20036;-76
2021/08/21 05:29:19;;;;;;;6.85;5.22;;;16.50;99.90;;;16.19;100.00;101138.97;4185297;28;20059;-76
2021/08/21 05:31:20;;;;;;;6.45;5.53;;;16.40;99.90;;;16.17;100.00;101139.13;4184223;28;20032;-76
2021/08/21 05:33:21;;;;;;;7.57;5.70;;;16.50;99.90;;;16.22;100.00;101150.06;4183838;28;20061;-76
2021/08/21 05:35:22;;;;;;;7.25;5.30;;;16.50;99.90;;;16.23;100.00;101142.91;4183995;28;20037;-76
2021/08/21 05:37:23;;;;;;;10.48;5.88;;;16.50;99.90;;;16.24;100.00;101142.72;4184632;28;20450;-76
2021/08/21 05:39:24;;;;;;;8.70;5.43;;;16.50;99.90;;;16.30;100.00;101141.16;4167248;28;20026;-75
2021/08/21 05:41:25;;;;;;;9.30;5.68;;;16.50;99.90;;;16.26;100.00;101137.22;4192739;28;20028;-75
2021/08/21 05:43:27;;;;;;;8.90;6.03;;;16.50;99.90;;;16.22;100.00;101142.06;4201306;28;20667;-74
2021/08/21 05:45:28;;;;;;;8.20;6.18;;;16.50;99.90;;;16.17;100.00;101144.47;4201080;28;20040;-74
2021/08/21 05:47:29;;;;;;;7.07;5.07;;;16.50;99.90;;;16.14;100.00;101144.81;4191832;28;20063;-74
2021/08/21 05:49:30;;;;;;;7.25;5.63;;;16.50;99.90;;;16.20;100.00;101153.91;4200916;28;20511;-75
2021/08/21 05:51:31;;;;;;;8.60;5.32;;;16.50;99.90;;;16.22;100.00;101152.72;4199735;28;20491;-75
2021/08/21 05:53:32;;;;;;;7.70;5.72;;;16.50;99.90;;;16.24;100.00;101155.22;4199813;28;20111;-75
2021/08/21 05:55:33;;;;;;;8.63;5.40;;;16.60;99.90;;;16.27;100.00;101155.69;4199009;28;20024;-75
2021/08/21 05:57:34;;;;;;;7.18;5.43;;;16.60;99.90;;;16.30;100.00;101149.16;4199764;28;20059;-74
2021/08/21 05:59:35;;;;;;;6.32;4.38;;;16.60;99.90;;;16.28;100.00;101136.00;4200042;28;20028;-74
2021/08/21 06:01:38;;;;;;;6.13;5.35;;;16.60;99.90;;;16.31;100.00;101148.97;4199614;28;20048;-76
2021/08/21 06:03:39;;;;;;;6.72;6.03;;;16.70;99.90;;;16.32;100.00;101139.13;4200055;28;20076;-75
2021/08/21 06:05:41;;;;;;;7.28;5.68;;;16.70;99.90;;;16.36;100.00;101148.44;4201045;28;20025;-75
2021/08/21 06:07:42;;;;;;;8.60;6.88;;;16.70;99.90;;;16.41;100.00;101149.53;4199644;28;20399;-75
2021/08/21 06:09:43;;;;;;;5.85;5.15;;;16.70;99.90;;;16.45;100.00;101158.81;4199897;28;20031;-75
2021/08/21 06:11:44;;;;;;;9.27;6.65;;;16.70;99.90;;;16.35;100.00;101150.25;4200674;28;20084;-75
2021/08/21 06:13:45;;;;;;;6.90;5.25;;;16.80;99.90;;;16.38;100.00;101152.56;4199876;28;20024;-76
2021/08/21 06:15:46;;;;;;;7.30;5.85;;;16.80;99.90;;;16.41;100.00;101162.00;4203670;28;20036;-75
2021/08/21 06:17:47;;;;;;;10.93;6.22;;;16.80;99.90;;;16.48;100.00;101168.25;4200121;28;20111;-76
2021/08/21 06:19:49;;;;;;;6.97;6.25;;;16.80;99.90;;;16.54;100.00;101178.22;4202248;28;20029;-75
2021/08/21 06:21:50;;;;;;;6.97;6.00;;;16.90;99.90;;;16.52;100.00;101167.69;4202063;28;20028;-76
2021/08/21 06:23:51;;;;;;;6.60;5.78;;;16.90;99.90;;;16.51;100.00;101163.41;4202122;28;20110;-75
2021/08/21 06:25:52;;;;;;;8.80;6.13;;;16.90;99.90;;;16.58;100.00;101180.31;4203597;28;20028;-74
2021/08/21 06:27:53;;;;;;;8.90;5.90;;;17.00;99.90;;;16.67;100.00;101180.19;4196364;28;20036;-75
2021/08/21 06:29:54;;;;;;;7.38;5.50;;;17.00;99.90;;;16.74;100.00;101178.47;4203183;28;20027;-75
2021/08/21 06:31:55;;;;;;;9.70;6.30;;;17.10;99.90;;;16.79;100.00;101173.41;4203488;28;20033;-75
2021/08/21 06:33:56;;;;;;;5.60;4.97;;;17.10;99.90;;;16.79;100.00;101171.56;4203044;28;20029;-74
2021/08/21 06:35:58;;;;;;;8.38;6.78;;;17.20;99.90;;;16.79;100.00;101178.72;4201821;28;20479;-74
2021/08/21 06:37:59;;;;;;;5.82;4.82;;;17.20;99.90;;;16.86;100.00;101183.13;4196070;28;20024;-75
2021/08/21 06:40:00;;;;;;;6.18;5.57;;;17.30;99.90;;;16.94;100.00;101185.69;4200816;28;20035;-75
2021/08/21 06:42:02;;;;;;;7.30;5.22;;;17.40;99.90;;;16.97;100.00;101182.66;4202541;28;20036;-76
2021/08/21 06:44:04;;;;;;;9.20;6.55;;;17.30;99.90;;;17.07;100.00;101190.34;4201757;28;20029;-76
2021/08/21 06:46:05;;;;;;;7.88;6.03;;;17.40;99.90;;;16.99;100.00;101174.47;4185511;28;20088;-77
2021/08/21 06:48:06;;;;;;;7.28;5.57;;;17.40;99.90;;;17.06;100.00;101188.69;4202462;28;20029;-75
2021/08/21 06:50:08;;;;;;;6.47;5.10;;;17.50;99.90;;;17.08;100.00;101200.03;4189447;28;20043;-77
2021/08/21 06:52:09;;;;;;;6.95;5.70;;;17.50;99.90;;;17.17;100.00;101200.72;4186046;28;20035;-75
2021/08/21 06:54:10;;;;;;;7.65;5.13;;;17.50;99.90;;;17.16;100.00;101199.91;4186324;28;20024;-76
2021/08/21 06:56:11;;;;;;;7.90;5.85;;;17.50;99.90;;;17.09;100.00;101193.66;4187275;28;20282;-75
2021/08/21 06:58:12;;;;;;;9.73;6.22;;;17.50;99.90;;;17.06;100.00;101194.84;4186248;28;20071;-76
2021/08/21 07:00:13;;;;;;;8.48;6.00;;;17.60;99.90;;;17.19;100.00;101188.88;4186037;28;20065;-75
2021/08/21 07:02:14;;;;;;;6.85;5.38;;;17.60;99.90;;;17.15;100.00;101190.25;4169414;28;20030;-75
2021/08/21 07:04:15;;;;;;;8.30;5.43;;;17.60;99.90;;;17.10;100.00;101184.66;4185953;28;20041;-76
2021/08/21 07:06:16;;;;;;;10.85;7.05;;;17.60;99.90;;;17.15;100.00;101198.22;4190793;28;20369;-76
2021/08/21 07:08:17;;;;;;;6.20;5.53;;;17.60;99.90;;;17.17;100.00;101193.56;4200357;28;20400;-75
2021/08/21 07:10:18;;;;;;;8.93;6.50;;;17.60;99.90;;;17.28;100.00;101203.72;4202197;28;20031;-75
2021/08/21 07:12:19;;;;;;;8.30;5.70;;;17.60;99.90;;;17.25;100.00;101209.44;4201255;28;20040;-74
2021/08/21 07:14:20;;;;;;;10.45;6.00;;;17.60;99.90;;;17.27;100.00;101210.06;4202431;28;20028;-75
2021/08/21 07:16:22;;;;;;;8.40;5.63;;;17.70;99.90;;;17.27;100.00;101206.56;4202510;28;20039;-76
2021/08/21 07:18:23;;;;;;;6.43;5.75;;;17.70;99.90;;;17.29;100.00;101209.91;4202265;28;20032;-75
2021/08/21 07:20:24;;;;;;;7.20;5.80;;;17.80;99.90;;;17.31;100.00;101210.53;4203452;28;20495;-75
2021/08/21 07:22:24;;;;;;;6.68;5.90;;;17.80;99.90;;;17.43;100.00;101217.84;4202321;28;20032;-75
2021/08/21 07:24:25;;;;;;;6.80;6.10;;;17.80;99.90;;;17.40;100.00;101212.06;4203606;28;20028;-74
2021/08/21 07:26:26;;;;;;;6.50;5.55;;;17.80;99.90;;;17.37;100.00;101212.44;4203555;28;20112;-75
2021/08/21 07:28:27;;;;;;;8.90;7.07;;;17.80;99.90;;;17.38;100.00;101224.78;4203461;28;20487;-75
2021/08/21 07:30:28;;;;;;;6.60;5.72;;;17.90;99.90;;;17.39;100.00;101227.22;4202290;28;20044;-75
2021/08/21 07:32:30;;;;;;;9.50;6.45;;;17.90;99.90;;;17.45;100.00;101234.47;4202394;28;20060;-75
2021/08/21 07:34:31;;;;;;;8.70;6.78;;;17.90;99.90;;;17.41;100.00;101217.19;4199828;28;20035;-75
2021/08/21 07:36:31;;;;;;;6.97;5.03;;;17.90;99.90;;;17.42;100.00;101224.19;4201534;28;20060;-74
2021/08/21 07:38:32;;;;;;;9.18;6.78;;;17.90;99.90;;;17.50;100.00;101226.72;4185307;28;20049;-75
2021/08/21 07:40:35;;;;;;;6.82;5.22;;;17.90;99.90;;;17.46;100.00;101241.47;4202211;28;20052;-74
2021/08/21 07:42:36;;;;;;;6.65;5.95;;;17.90;99.90;;;17.41;100.00;101246.53;4203165;28;20071;-74
2021/08/21 07:44:37;;;;;;;8.60;6.07;;;17.90;99.90;;;17.49;100.00;101243.78;4185613;28;20064;-75
2021/08/21 07:46:39;;;;;;;7.88;6.25;;;17.90;99.90;;;17.39;100.00;101211.22;4188808;28;20526;-74
2021/08/21 07:48:40;;;;;;;8.70;5.82;;;17.90;99.90;;;17.39;100.00;101216.56;4195586;28;20032;-74
2021/08/21 07:50:42;;;;;;;7.28;6.00;;;17.80;99.90;;;17.35;100.00;101227.81;4186535;28;20021;-75
2021/08/21 07:52:46;;;;;;;11.27;6.80;;;17.90;99.90;;;17.36;100.00;101238.28;4186193;28;20553;-74
2021/08/21 07:54:47;;;;;;;7.32;6.22;;;17.80;99.90;;;17.41;100.00;101240.41;4168955;28;20025;-74
2021/08/21 07:56:48;;;;;;;7.20;6.40;;;17.90;99.90;;;17.44;100.00;101246.16;4185559;28;20170;-76
2021/08/21 07:58:49;;;;;;;7.47;5.63;;;17.80;99.90;;;17.52;100.00;101250.56;4184972;28;20033;-76
2021/08/21 08:00:50;;;;;;;8.18;6.50;;;17.90;99.90;;;17.46;100.00;101238.81;4184593;28;20116;-75
2021/08/21 08:02:51;;;;;;;7.90;6.65;;;17.90;99.90;;;17.43;100.00;101231.19;4184049;28;20060;-75
2021/08/21 08:04:52;;;;;;;10.35;7.43;;;17.80;99.90;;;17.43;100.00;101233.03;4185913;28;20029;-76
2021/08/21 08:06:52;;;;;;;7.00;6.30;;;17.80;99.90;;;17.37;100.00;101228.44;4184692;28;20064;-76
2021/08/21 08:08:53;;;;;;;7.68;6.53;;;17.80;99.90;;;17.31;100.00;101235.34;4184404;28;20061;-74
2021/08/21 08:10:54;;;;;;;7.40;6.50;;;17.80;99.90;;;17.29;100.00;101242.72;4186048;28;20052;-74
2021/08/21 08:12:55;;;;;;;6.47;5.35;;;17.80;99.90;;;17.34;100.00;101255.47;4168335;28;20099;-74
2021/08/21 08:14:56;;;;;;;7.78;6.07;;;17.70;99.90;;;17.37;100.00;101250.59;4187696;28;20017;-74
2021/08/21 08:16:57;;;;;;;8.82;5.82;;;17.80;99.90;;;17.34;100.00;101256.31;4189222;28;20040;-75
2021/08/21 08:18:58;;;;;;;9.55;6.32;;;17.70;99.90;;;17.28;100.00;101261.56;4184676;28;20020;-76
2021/08/21 08:20:59;;;;;;;8.68;6.50;;;17.80;99.90;;;17.25;100.00;101256.59;4173791;28;20025;-76